Time;durP1;ratioP1;P1;durP2;ratioP2;P2;SDS_P1;SDS_P2;PMS_P1;PMS_P2;Temp;Humidity;BMP_temperature;BMP_pressure;BME280_temperature;BME280_humidity;BME280_pressure;Samples;Min_cycle;Max_cycle;Signal;HPM_P1;HPM_P2
2024/02/06 00:01:09;;;;;;;0.30;0.30;;;6.00;99.90;;;;;;4977529;28;20453;-81
2024/02/06 00:03:35;;;;;;;1.50;1.37;;;6.00;99.90;;;;;;4977447;28;20475;-81
2024/02/06 00:06:02;;;;;;;0.73;0.50;;;5.90;99.90;;;;;;4977571;28;20457;-81
2024/02/06 00:08:30;;;;;;;3.80;0.80;;;5.80;99.90;;;;;;4977400;28;20863;-81
2024/02/06 00:10:57;;;;;;;0.70;0.40;;;5.80;99.90;;;;;;4977356;28;20450;-82
2024/02/06 00:13:23;;;;;;;1.80;0.50;;;5.70;99.90;;;;;;4977405;28;20813;-81
2024/02/06 00:15:50;;;;;;;1.03;0.40;;;5.70;99.90;;;;;;4977277;28;20454;-81
2024/02/06 00:18:17;;;;;;;0.80;0.53;;;5.60;99.90;;;;;;4977267;28;20456;-82
2024/02/06 00:20:43;;;;;;;0.77;0.70;;;8.20;99.90;;;;;;4977290;28;20484;-81
2024/02/06 00:23:10;;;;;;;0.90;0.77;;;5.40;99.90;;;;;;4977356;28;20453;-81
2024/02/06 00:25:38;;;;;;;0.83;0.70;;;5.40;99.90;;;;;;4977161;28;20453;-81
2024/02/06 00:28:05;;;;;;;0.70;0.70;;;5.30;99.90;;;;;;4977426;28;20445;-81
2024/02/06 00:30:32;;;;;;;0.40;0.40;;;5.20;99.90;;;;;;4976971;28;20501;-82
2024/02/06 00:32:59;;;;;;;0.70;0.70;;;5.10;99.90;;;;;;4977625;28;20460;-81
2024/02/06 00:35:25;;;;;;;0.50;0.50;;;5.10;99.90;;;;;;4977425;28;20457;-82
2024/02/06 00:37:53;;;;;;;0.40;0.40;;;5.00;99.90;;;;;;4977398;28;20453;-81
2024/02/06 00:40:20;;;;;;;5.20;1.60;;;4.90;99.90;;;;;;4976477;28;21016;-81
2024/02/06 00:42:48;;;;;;;1.20;1.10;;;4.90;99.90;;;;;;4977195;28;20791;-82
2024/02/06 00:45:18;;;;;;;3.67;1.10;;;4.90;99.90;;;;;;4976951;28;20453;-81
2024/02/06 00:47:47;;;;;;;1.00;1.00;;;;;;;;;;4977048;28;20449;-82
2024/02/06 00:50:14;;;;;;;5.50;1.33;;;4.80;99.90;;;;;;4976572;28;21022;-81
2024/02/06 00:52:41;;;;;;;1.57;1.20;;;4.70;99.90;;;;;;4977032;28;20518;-81
2024/02/06 00:55:08;;;;;;;2.10;2.00;;;4.60;99.90;;;;;;4976593;28;20460;-82
2024/02/06 00:57:35;;;;;;;1.30;0.90;;;4.60;99.90;;;;;;4977092;28;20517;-81
2024/02/06 01:00:03;;;;;;;5.30;1.03;;;4.50;99.90;;;;;;4977050;28;20488;-82
2024/02/06 01:02:30;;;;;;;2.07;0.80;;;4.50;99.90;;;;;;4976906;28;20475;-81
2024/02/06 01:04:57;;;;;;;1.70;1.10;;;4.50;99.90;;;;;;4976224;28;20457;-82
2024/02/06 01:07:25;;;;;;;1.47;1.00;;;4.40;99.90;;;;;;4976343;28;20445;-82
2024/02/06 01:09:52;;;;;;;0.90;0.90;;;4.40;99.90;;;;;;4976602;28;20485;-81
2024/02/06 01:12:19;;;;;;;2.43;1.10;;;4.40;99.90;;;;;;4976550;28;20448;-82
2024/02/06 01:14:46;;;;;;;0.93;0.80;;;4.40;99.90;;;;;;4976752;28;20453;-82
2024/02/06 01:17:14;;;;;;;3.23;1.43;;;4.40;99.90;;;;;;4976739;28;20456;-81
2024/02/06 01:19:40;;;;;;;4.37;1.57;;;4.30;99.90;;;;;;4976743;28;20469;-82
2024/02/06 01:22:07;;;;;;;0.80;0.80;;;4.30;99.90;;;;;;4976160;28;20448;-81
2024/02/06 01:24:34;;;;;;;1.50;1.40;;;4.30;99.90;;;;;;4976543;28;20449;-82
2024/02/06 01:27:01;;;;;;;3.40;1.70;;;4.30;99.90;;;;;;4976367;28;20452;-82
2024/02/06 01:29:27;;;;;;;1.43;1.33;;;4.20;99.90;;;;;;4976294;28;20625;-81
2024/02/06 01:31:54;;;;;;;6.00;0.97;;;4.20;99.90;;;;;;4976876;28;20442;-81
2024/02/06 01:34:22;;;;;;;1.90;1.50;;;4.20;99.90;;;;;;4976385;28;20456;-82
2024/02/06 01:36:49;;;;;;;3.73;1.00;;;4.20;99.90;;;;;;4976566;28;20456;-81
2024/02/06 01:39:17;;;;;;;1.90;0.90;;;4.30;99.90;;;;;;4976059;28;20493;-81
2024/02/06 01:41:43;;;;;;;1.17;0.77;;;4.30;99.90;;;;;;4976776;28;20552;-82
2024/02/06 01:44:11;;;;;;;0.97;0.87;;;4.30;99.90;;;;;;4976374;28;20453;-81
2024/02/06 01:46:39;;;;;;;0.70;0.70;;;4.30;99.90;;;;;;4979157;28;20461;-81
2024/02/06 01:49:07;;;;;;;2.03;1.27;;;4.30;99.90;;;;;;4984224;28;20568;-81
2024/02/06 01:51:40;;;;;;;7.93;0.90;;;4.30;99.90;;;;;;4975238;28;20502;-82
2024/02/06 01:54:07;;;;;;;1.07;0.97;;;4.30;99.90;;;;;;4975485;28;20437;-82
2024/02/06 01:56:35;;;;;;;3.27;0.70;;;4.30;99.90;;;;;;4974902;28;20438;-81
2024/02/06 01:59:03;;;;;;;11.23;1.57;;;4.30;99.90;;;;;;4975362;28;20477;-81
2024/02/06 02:01:30;;;;;;;3.73;1.37;;;4.30;99.90;;;;;;4975146;28;20445;-82
2024/02/06 02:03:59;;;;;;;1.50;1.03;;;4.30;99.90;;;;;;4975233;28;20444;-82
2024/02/06 02:06:27;;;;;;;1.43;1.10;;;4.30;99.90;;;;;;4975051;28;20457;-82
2024/02/06 02:08:56;;;;;;;0.83;0.83;;;4.20;99.90;;;;;;4974693;28;20990;-81
2024/02/06 02:11:22;;;;;;;1.93;1.27;;;4.10;99.90;;;;;;4975650;28;20450;-80
2024/02/06 02:13:50;;;;;;;8.73;2.40;;;4.10;99.90;;;;;;4975111;28;20453;-81
2024/02/06 02:16:19;;;;;;;1.60;1.50;;;4.10;99.90;;;;;;4979821;28;20480;-82
2024/02/06 02:18:46;;;;;;;6.63;1.90;;;4.10;99.90;;;;;;4981543;28;20469;-82
2024/02/06 02:21:15;;;;;;;1.57;1.33;;;4.10;99.90;;;;;;4982070;28;20463;-81
2024/02/06 02:23:44;;;;;;;1.63;1.00;;;4.10;99.90;;;;;;4981708;28;20475;-82
2024/02/06 02:26:13;;;;;;;2.77;1.77;;;4.00;99.90;;;;;;4981713;28;20433;-81
2024/02/06 02:28:41;;;;;;;1.80;0.70;;;4.10;99.90;;;;;;4981768;28;20477;-81
2024/02/06 02:31:09;;;;;;;6.30;2.03;;;4.00;99.90;;;;;;4981825;28;20488;-82
2024/02/06 02:33:37;;;;;;;2.30;1.83;;;4.00;99.90;;;;;;4981782;28;20445;-82
2024/02/06 02:36:04;;;;;;;2.23;2.03;;;4.00;99.90;;;;;;4982123;28;20459;-82
2024/02/06 02:38:33;;;;;;;2.10;1.50;;;4.00;99.90;;;;;;4981692;28;20437;-82
2024/02/06 02:41:00;;;;;;;3.30;0.90;;;3.90;99.90;;;;;;4981649;28;20434;-82
2024/02/06 02:43:26;;;;;;;1.17;0.77;;;3.90;99.90;;;;;;4981701;28;20448;-82
2024/02/06 02:45:53;;;;;;;2.50;1.27;;;3.90;99.90;;;;;;4982018;28;20464;-81
2024/02/06 02:48:20;;;;;;;3.50;1.30;;;3.90;99.90;;;;;;4981417;28;20441;-81
2024/02/06 02:50:47;;;;;;;1.17;1.13;;;3.90;99.90;;;;;;4981847;28;20492;-82
2024/02/06 02:53:14;;;;;;;1.33;1.23;;;4.10;99.90;;;;;;4981467;28;20457;-82
2024/02/06 02:55:42;;;;;;;1.53;0.90;;;3.90;99.90;;;;;;4982229;28;20449;-82
2024/02/06 02:58:09;;;;;;;3.67;1.53;;;3.80;99.90;;;;;;4981333;28;20449;-82
2024/02/06 03:00:36;;;;;;;1.30;1.00;;;3.90;99.90;;;;;;4981431;28;20465;-82
2024/02/06 03:03:02;;;;;;;1.93;1.83;;;3.90;99.90;;;;;;4981634;28;20457;-82
2024/02/06 03:05:29;;;;;;;0.80;0.80;;;3.90;99.90;;;;;;4981524;28;20453;-82
2024/02/06 03:07:56;;;;;;;1.50;1.00;;;3.80;99.90;;;;;;4981618;28;20460;-82
2024/02/06 03:10:22;;;;;;;2.90;1.53;;;3.80;99.90;;;;;;4981453;28;20481;-81
2024/02/06 03:12:50;;;;;;;2.07;0.97;;;3.80;99.90;;;;;;4981322;28;20453;-82
2024/02/06 03:15:17;;;;;;;2.23;1.17;;;3.80;99.90;;;;;;4981653;28;20445;-81
2024/02/06 03:17:44;;;;;;;1.00;0.87;;;3.70;99.90;;;;;;4981878;28;20456;-81
2024/02/06 03:20:11;;;;;;;3.30;1.50;;;3.70;99.90;;;;;;4981370;28;20464;-82
2024/02/06 03:22:38;;;;;;;5.50;1.90;;;3.60;99.90;;;;;;4981644;28;20445;-81
2024/02/06 03:25:06;;;;;;;1.07;0.70;;;3.60;99.90;;;;;;4981813;28;20791;-81
2024/02/06 03:27:33;;;;;;;3.07;2.33;;;3.60;99.90;;;;;;4979169;28;20448;-81
2024/02/06 03:30:02;;;;;;;4.63;1.30;;;3.60;99.90;;;;;;4978185;28;20496;-80
2024/02/06 03:32:29;;;;;;;1.07;1.07;;;3.60;99.90;;;;;;4978477;28;20481;-81
2024/02/06 03:34:55;;;;;;;1.47;1.37;;;3.60;99.90;;;;;;4979226;28;20460;-81
2024/02/06 03:37:22;;;;;;;3.03;2.20;;;3.60;99.90;;;;;;4978223;28;20449;-81
2024/02/06 03:39:49;;;;;;;3.60;1.13;;;3.60;99.90;;;;;;4977683;28;20477;-81
2024/02/06 03:42:15;;;;;;;0.87;0.57;;;3.60;99.90;;;;;;4978671;28;20449;-81
2024/02/06 03:44:42;;;;;;;0.87;0.80;;;3.60;99.90;;;;;;4978207;28;20449;-81
2024/02/06 03:47:10;;;;;;;1.77;0.93;;;3.60;99.90;;;;;;4978230;28;20449;-81
2024/02/06 03:49:37;;;;;;;0.87;0.87;;;3.50;99.90;;;;;;4977797;28;20492;-82
2024/02/06 03:52:04;;;;;;;2.40;0.80;;;3.50;99.90;;;;;;4978080;28;20448;-82
2024/02/06 03:54:31;;;;;;;2.33;1.17;;;3.50;99.90;;;;;;4977856;28;20460;-81
2024/02/06 03:56:58;;;;;;;2.80;1.07;;;3.40;99.90;;;;;;4977776;28;20445;-82
2024/02/06 03:59:25;;;;;;;1.13;0.67;;;3.40;99.90;;;;;;4978333;28;20465;-82
2024/02/06 04:01:51;;;;;;;3.23;1.00;;;3.40;99.90;;;;;;4987758;28;20446;-81
2024/02/06 04:04:19;;;;;;;2.97;1.60;;;3.40;99.90;;;;;;4977034;28;20456;-82
2024/02/06 04:06:46;;;;;;;2.10;0.93;;;3.30;99.90;;;;;;4976672;28;20456;-82
2024/02/06 04:09:13;;;;;;;0.73;0.60;;;3.30;99.90;;;;;;4977129;28;20496;-81
2024/02/06 04:11:40;;;;;;;6.20;0.83;;;3.30;99.90;;;;;;4976737;28;20520;-82
2024/02/06 04:14:07;;;;;;;1.10;1.10;;;3.20;99.90;;;;;;4976913;28;20801;-82
2024/02/06 04:16:34;;;;;;;4.60;1.70;;;3.20;99.90;;;;;;4977032;28;20457;-81
2024/02/06 04:19:00;;;;;;;0.53;0.53;;;3.20;99.90;;;;;;4976601;28;20474;-81
2024/02/06 04:21:28;;;;;;;1.10;1.00;;;3.30;99.90;;;;;;4976899;28;20450;-82
2024/02/06 04:23:56;;;;;;;1.53;0.90;;;3.20;99.90;;;;;;4976948;28;20449;-81
2024/02/06 04:26:23;;;;;;;0.70;0.57;;;;;;;;;;4977022;28;20445;-82
2024/02/06 04:28:50;;;;;;;0.70;0.70;;;3.30;99.90;;;;;;4976858;28;20476;-82
2024/02/06 04:31:16;;;;;;;1.47;0.90;;;3.30;99.90;;;;;;4976834;28;20485;-82
2024/02/06 04:33:43;;;;;;;4.23;2.20;;;3.30;99.90;;;;;;4977182;28;20832;-82
2024/02/06 04:36:10;;;;;;;2.00;1.23;;;3.30;99.90;;;;;;4976897;28;20450;-82
2024/02/06 04:38:38;;;;;;;0.90;0.70;;;3.40;99.90;;;;;;4975351;28;20452;-82
2024/02/06 04:41:05;;;;;;;2.17;1.10;;;3.40;99.90;;;;;;4976626;28;20429;-81
2024/02/06 04:43:31;;;;;;;1.07;0.87;;;3.40;99.90;;;;;;4976845;28;20449;-82
2024/02/06 04:45:58;;;;;;;1.83;0.80;;;3.40;99.90;;;;;;4976716;28;20433;-82
2024/02/06 04:48:25;;;;;;;1.40;1.30;;;3.30;99.90;;;;;;4976737;28;20445;-82
2024/02/06 04:50:51;;;;;;;0.57;0.57;;;3.30;99.90;;;;;;4976677;28;21009;-81
2024/02/06 04:53:18;;;;;;;2.43;1.37;;;3.30;99.90;;;;;;4976693;28;20480;-82
2024/02/06 04:55:46;;;;;;;0.60;0.60;;;3.30;99.90;;;;;;4977012;28;20460;-82
2024/02/06 04:58:13;;;;;;;1.23;0.70;;;3.30;99.90;;;;;;4977382;28;20502;-82
2024/02/06 05:00:40;;;;;;;3.13;1.07;;;3.20;99.90;;;;;;4977940;28;20470;-81
2024/02/06 05:03:07;;;;;;;1.73;1.20;;;3.20;99.90;;;;;;4976793;28;20457;-81
2024/02/06 05:05:34;;;;;;;1.17;0.60;;;3.30;99.90;;;;;;4976569;28;20984;-82
2024/02/06 05:08:01;;;;;;;0.60;0.60;;;3.30;99.90;;;;;;4976263;28;20946;-81
2024/02/06 05:10:27;;;;;;;2.60;0.93;;;3.30;99.90;;;;;;4976346;28;20997;-82
2024/02/06 05:12:56;;;;;;;4.37;1.13;;;3.30;99.90;;;;;;4976514;28;20445;-82
2024/02/06 05:15:22;;;;;;;0.80;0.70;;;3.30;99.90;;;;;;4976497;28;20445;-82
2024/02/06 05:17:49;;;;;;;0.63;0.50;;;3.40;99.90;;;;;;4976675;28;20816;-82
2024/02/06 05:20:16;;;;;;;1.67;1.20;;;3.40;99.90;;;;;;4976586;28;20472;-82
2024/02/06 05:22:43;;;;;;;2.10;1.73;;;3.40;99.90;;;;;;4976815;28;20434;-82
2024/02/06 05:25:11;;;;;;;1.00;0.80;;;3.50;99.90;;;;;;4976375;28;20457;-81
2024/02/06 05:27:39;;;;;;;0.90;0.90;;;3.50;99.90;;;;;;4976379;28;20538;-82
2024/02/06 05:30:08;;;;;;;1.20;1.20;;;3.50;99.90;;;;;;4976025;28;20493;-82
2024/02/06 05:32:35;;;;;;;3.10;0.70;;;3.70;99.90;;;;;;4976642;28;20449;-82
2024/02/06 05:35:02;;;;;;;2.73;1.43;;;3.70;99.90;;;;;;4976288;28;20448;-82
2024/02/06 05:37:29;;;;;;;0.73;0.73;;;3.80;99.90;;;;;;4976838;28;20520;-81
2024/02/06 05:39:56;;;;;;;1.00;0.77;;;3.80;99.90;;;;;;4976061;28;20493;-81
2024/02/06 05:42:22;;;;;;;5.60;0.87;;;3.90;99.90;;;;;;4976781;28;20438;-81
2024/02/06 05:44:49;;;;;;;1.43;1.10;;;3.90;99.90;;;;;;4976839;28;20449;-81
2024/02/06 05:47:17;;;;;;;2.33;1.97;;;4.00;99.90;;;;;;4976124;28;20469;-82
2024/02/06 05:49:44;;;;;;;1.60;1.50;;;3.90;99.90;;;;;;4975755;28;20501;-81
2024/02/06 05:52:11;;;;;;;4.03;1.27;;;3.90;99.90;;;;;;4975987;28;21010;-81
2024/02/06 05:54:38;;;;;;;1.10;1.07;;;3.90;99.90;;;;;;4975937;28;20514;-82
2024/02/06 05:57:05;;;;;;;1.00;0.77;;;4.00;99.90;;;;;;4976029;28;20449;-81
2024/02/06 05:59:32;;;;;;;1.07;0.70;;;4.00;99.90;;;;;;4976354;28;20472;-82
2024/02/06 06:01:59;;;;;;;1.07;0.60;;;4.10;99.90;;;;;;4976393;28;20472;-81
2024/02/06 06:04:27;;;;;;;1.67;0.80;;;4.10;99.90;;;;;;4976187;28;20449;-81
2024/02/06 06:06:53;;;;;;;3.60;1.13;;;4.10;99.90;;;;;;4976429;28;20957;-82
2024/02/06 06:09:20;;;;;;;2.10;0.83;;;4.10;99.90;;;;;;4976036;28;20470;-82
2024/02/06 06:11:47;;;;;;;1.67;1.43;;;4.10;99.90;;;;;;4976292;28;20497;-82
2024/02/06 06:14:13;;;;;;;1.60;1.10;;;4.10;99.90;;;;;;4987120;28;20453;-82
2024/02/06 06:16:41;;;;;;;2.47;0.70;;;4.10;99.90;;;;;;4974836;28;20445;-81
2024/02/06 06:19:08;;;;;;;1.43;0.60;;;4.10;99.90;;;;;;4974757;28;20477;-82
2024/02/06 06:21:36;;;;;;;1.70;1.60;;;4.00;99.90;;;;;;4975252;28;20815;-81
2024/02/06 06:24:03;;;;;;;2.63;0.80;;;3.90;99.90;;;;;;4974949;28;20450;-81
2024/02/06 06:26:29;;;;;;;6.57;1.07;;;3.90;99.90;;;;;;4974909;28;20453;-81
2024/02/06 06:28:56;;;;;;;0.50;0.50;;;3.90;99.90;;;;;;4974454;28;21090;-80
2024/02/06 06:31:23;;;;;;;4.70;1.37;;;3.80;99.90;;;;;;4974542;28;20481;-81
2024/02/06 06:33:49;;;;;;;1.90;0.63;;;3.80;99.90;;;;;;4975023;28;20434;-81
2024/02/06 06:36:16;;;;;;;1.17;0.80;;;3.80;99.90;;;;;;4975082;28;20423;-81
2024/02/06 06:38:44;;;;;;;0.50;0.43;;;3.80;99.90;;;;;;4974557;28;20492;-81
2024/02/06 06:41:11;;;;;;;0.47;0.47;;;3.80;99.90;;;;;;4974913;28;20451;-81
2024/02/06 06:43:38;;;;;;;1.47;1.07;;;3.70;99.90;;;;;;4974826;28;20985;-82
2024/02/06 06:46:05;;;;;;;1.00;0.60;;;3.80;99.90;;;;;;4974663;28;20969;-81
2024/02/06 06:48:33;;;;;;;7.70;0.67;;;3.80;99.90;;;;;;4974828;28;20477;-82
2024/02/06 06:50:59;;;;;;;2.93;1.50;;;3.90;99.90;;;;;;4974794;28;20925;-82
2024/02/06 06:53:26;;;;;;;1.47;0.80;;;4.00;99.90;;;;;;4974956;28;20526;-82
2024/02/06 06:55:54;;;;;;;2.77;0.93;;;4.00;99.90;;;;;;4974770;28;20453;-81
2024/02/06 06:58:21;;;;;;;0.70;0.60;;;4.10;99.90;;;;;;4974822;28;20796;-81
2024/02/06 07:00:49;;;;;;;2.57;0.70;;;4.20;99.90;;;;;;4974923;28;20441;-81
2024/02/06 07:03:15;;;;;;;0.40;0.40;;;4.20;99.90;;;;;;4976993;28;20445;-81
2024/02/06 07:05:42;;;;;;;1.90;0.63;;;4.20;99.90;;;;;;4977989;28;20452;-82
2024/02/06 07:08:08;;;;;;;1.63;0.90;;;4.20;99.90;;;;;;4978588;28;20867;-81
2024/02/06 07:10:35;;;;;;;1.07;0.90;;;4.20;99.90;;;;;;4978163;28;20472;-82
2024/02/06 07:13:03;;;;;;;0.70;0.70;;;4.30;99.90;;;;;;4978755;28;20453;-82
2024/02/06 07:15:30;;;;;;;2.00;0.90;;;4.30;99.90;;;;;;4978834;28;20452;-82
2024/02/06 07:17:57;;;;;;;0.63;0.63;;;4.30;99.90;;;;;;4978362;28;20418;-81
2024/02/06 07:20:23;;;;;;;1.17;0.50;;;4.30;99.90;;;;;;4978459;28;20483;-81
2024/02/06 07:22:52;;;;;;;1.90;0.70;;;4.30;99.90;;;;;;4978347;28;20985;-82
2024/02/06 07:25:19;;;;;;;0.50;0.50;;;4.30;99.90;;;;;;4978473;28;20504;-81
2024/02/06 07:27:45;;;;;;;1.40;0.77;;;4.30;99.90;;;;;;4978124;28;20441;-81
2024/02/06 07:30:14;;;;;;;1.43;0.73;;;4.30;99.90;;;;;;4978478;28;20472;-81
2024/02/06 07:32:41;;;;;;;0.60;0.60;;;4.40;99.90;;;;;;4978171;28;21024;-81
2024/02/06 07:35:09;;;;;;;0.97;0.40;;;4.40;99.90;;;;;;4979230;28;20460;-81
2024/02/06 07:37:37;;;;;;;1.23;1.00;;;4.50;99.90;;;;;;4978751;28;20460;-82
2024/02/06 07:40:04;;;;;;;0.73;0.73;;;4.50;99.90;;;;;;4978472;28;20493;-81
2024/02/06 07:42:31;;;;;;;1.10;0.60;;;4.60;99.90;;;;;;4979337;28;20456;-81
2024/02/06 07:44:58;;;;;;;0.40;0.40;;;4.60;99.90;;;;;;4979296;28;20449;-81
2024/02/06 07:47:26;;;;;;;1.00;0.77;;;4.70;99.90;;;;;;4981626;28;20454;-81
2024/02/06 07:49:52;;;;;;;1.53;0.50;;;4.70;99.90;;;;;;4979571;28;20465;-81
2024/02/06 07:52:19;;;;;;;1.73;1.63;;;4.80;99.90;;;;;;4978749;28;20488;-81
2024/02/06 07:54:46;;;;;;;2.30;0.70;;;4.80;99.90;;;;;;4978512;28;20456;-81
2024/02/06 07:57:13;;;;;;;1.53;0.97;;;4.80;99.90;;;;;;4978552;28;20456;-81
2024/02/06 07:59:40;;;;;;;2.30;0.83;;;4.80;99.90;;;;;;4978365;28;20472;-81
2024/02/06 08:02:07;;;;;;;1.43;1.07;;;4.70;99.90;;;;;;4979141;28;20446;-81
2024/02/06 08:04:35;;;;;;;1.00;1.00;;;4.80;99.90;;;;;;4980077;28;20445;-81
2024/02/06 08:07:02;;;;;;;2.40;1.00;;;4.80;99.90;;;;;;4980549;28;20939;-81
2024/02/06 08:09:29;;;;;;;0.70;0.70;;;4.90;99.90;;;;;;4979764;28;20465;-81
2024/02/06 08:11:56;;;;;;;0.90;0.67;;;5.00;99.90;;;;;;4979656;28;20489;-81
2024/02/06 08:14:22;;;;;;;1.07;1.07;;;5.10;99.90;;;;;;4979587;28;20529;-81
2024/02/06 08:16:50;;;;;;;3.37;2.93;;;5.10;99.90;;;;;;4980405;28;20453;-81
2024/02/06 08:19:16;;;;;;;17.40;0.93;;;5.10;99.90;;;;;;4980014;28;20501;-81
2024/02/06 08:21:44;;;;;;;0.77;0.77;;;5.20;99.90;;;;;;4980085;28;20457;-80
2024/02/06 08:24:11;;;;;;;1.30;1.00;;;5.40;99.90;;;;;;4979400;28;20453;-79
2024/02/06 08:26:38;;;;;;;0.60;0.43;;;5.30;99.90;;;;;;4991156;28;20437;-80
2024/02/06 08:29:05;;;;;;;0.80;0.50;;;5.40;99.90;;;;;;4983127;28;20458;-79
2024/02/06 08:31:32;;;;;;;0.50;0.37;;;5.40;99.90;;;;;;4977491;28;20524;-80
2024/02/06 08:33:59;;;;;;;1.00;0.70;;;5.40;99.90;;;;;;4977596;28;20453;-80
2024/02/06 08:36:26;;;;;;;0.80;0.80;;;5.50;99.90;;;;;;4977436;28;20449;-80
2024/02/06 08:38:54;;;;;;;0.83;0.80;;;5.50;99.90;;;;;;4977643;28;20496;-80
2024/02/06 08:41:22;;;;;;;1.00;0.83;;;5.50;99.90;;;;;;4977800;28;20452;-80
2024/02/06 08:43:49;;;;;;;2.30;1.50;;;5.60;99.90;;;;;;4977697;28;20457;-80
2024/02/06 08:46:15;;;;;;;0.77;0.57;;;5.60;99.90;;;;;;4978053;28;20441;-82
2024/02/06 08:48:42;;;;;;;2.53;1.20;;;5.60;99.90;;;;;;4978364;28;20462;-80
2024/02/06 08:51:10;;;;;;;2.40;0.50;;;5.70;99.90;;;;;;4978977;28;20528;-80
2024/02/06 08:53:37;;;;;;;1.47;0.50;;;5.70;99.90;;;;;;4978745;28;20476;-80
2024/02/06 08:56:07;;;;;;;0.63;0.63;;;5.80;99.90;;;;;;4979056;28;20455;-80
2024/02/06 08:58:34;;;;;;;0.80;0.50;;;5.90;99.90;;;;;;4979933;28;20440;-80
2024/02/06 09:01:01;;;;;;;0.70;0.50;;;5.90;99.90;;;;;;4979334;28;20445;-80
2024/02/06 09:03:27;;;;;;;0.93;0.73;;;5.90;99.90;;;;;;4979270;28;20493;-80
2024/02/06 09:05:54;;;;;;;3.87;1.20;;;6.00;99.90;;;;;;4977616;28;20430;-80
2024/02/06 09:08:21;;;;;;;0.90;0.73;;;6.10;99.90;;;;;;4977369;28;20456;-80
2024/02/06 09:10:47;;;;;;;0.50;0.50;;;6.10;99.90;;;;;;4977282;28;20821;-80
2024/02/06 09:13:15;;;;;;;3.40;0.60;;;6.20;99.90;;;;;;4977773;28;20489;-80
2024/02/06 09:15:42;;;;;;;0.73;0.73;;;6.30;99.90;;;;;;4976533;28;20453;-80
2024/02/06 09:18:09;;;;;;;0.63;0.40;;;6.40;99.90;;;;;;4976324;28;20460;-80
2024/02/06 09:20:36;;;;;;;0.50;0.50;;;6.50;99.90;;;;;;4976097;28;20477;-80
2024/02/06 09:23:04;;;;;;;0.80;0.80;;;6.50;99.90;;;;;;4976341;28;20445;-80
2024/02/06 09:25:31;;;;;;;0.30;0.20;;;6.60;99.90;;;;;;4975748;28;20453;-80
2024/02/06 09:27:57;;;;;;;1.33;0.80;;;6.70;99.90;;;;;;4976254;28;20457;-80
2024/02/06 09:30:25;;;;;;;1.57;0.80;;;6.80;99.90;;;;;;4976154;28;20524;-80
2024/02/06 09:32:52;;;;;;;0.40;0.33;;;7.00;99.90;;;;;;4976554;28;20477;-80
2024/02/06 09:35:19;;;;;;;0.80;0.40;;;7.10;99.90;;;;;;4976231;28;20453;-80
2024/02/06 09:37:46;;;;;;;0.37;0.30;;;7.20;99.90;;;;;;4976061;28;20453;-79
2024/02/06 09:40:13;;;;;;;1.10;0.43;;;7.40;99.90;;;;;;4975986;28;20489;-79
2024/02/06 09:42:40;;;;;;;0.40;0.40;;;7.50;99.90;;;;;;4976104;28;20452;-79
2024/02/06 09:45:07;;;;;;;0.80;0.70;;;7.70;99.90;;;;;;4976650;28;20442;-79
2024/02/06 09:47:36;;;;;;;0.40;0.30;;;7.70;99.90;;;;;;4976724;28;20458;-79
2024/02/06 09:50:03;;;;;;;0.80;0.60;;;7.80;99.90;;;;;;4975900;28;20473;-79
2024/02/06 09:52:31;;;;;;;0.60;0.40;;;7.80;99.90;;;;;;4976211;28;20511;-79
2024/02/06 09:55:00;;;;;;;0.30;0.30;;;7.90;99.90;;;;;;4976236;28;20483;-79
2024/02/06 09:57:28;;;;;;;1.10;0.47;;;8.10;99.90;;;;;;4976087;28;20442;-79
2024/02/06 09:59:56;;;;;;;0.30;0.30;;;8.10;99.90;;;;;;4976060;28;20465;-80
2024/02/06 10:02:25;;;;;;;0.83;0.63;;;8.30;99.90;;;;;;4975856;28;20938;-79
2024/02/06 10:04:55;;;;;;;0.37;0.30;;;8.30;99.90;;;;;;4975813;28;20460;-79
2024/02/06 10:07:23;;;;;;;1.07;0.83;;;8.50;99.90;;;;;;4976182;28;20446;-79
2024/02/06 10:09:51;;;;;;;0.30;0.30;;;8.60;99.90;;;;;;4975873;28;20477;-79
2024/02/06 10:12:18;;;;;;;0.30;0.30;;;8.60;99.90;;;;;;4977604;28;20473;-80
2024/02/06 10:14:45;;;;;;;0.40;0.30;;;8.60;99.90;;;;;;4977562;28;20452;-83
2024/02/06 10:17:13;;;;;;;0.40;0.30;;;8.70;99.90;;;;;;4976390;28;20833;-80
2024/02/06 10:19:39;;;;;;;0.40;0.40;;;8.70;99.90;;;;;;4976141;28;20569;-80
2024/02/06 10:22:09;;;;;;;0.97;0.33;;;8.60;99.90;;;;;;4976143;28;20526;-80
2024/02/06 10:24:35;;;;;;;0.50;0.37;;;8.60;99.90;;;;;;4975845;28;20446;-80
2024/02/06 10:27:03;;;;;;;0.40;0.30;;;8.80;99.90;;;;;;4975466;28;20449;-79
2024/02/06 10:29:31;;;;;;;0.50;0.50;;;8.80;99.90;;;;;;4975111;28;20476;-79
2024/02/06 10:31:59;;;;;;;0.40;0.40;;;8.80;99.90;;;;;;4975128;28;20577;-79
2024/02/06 10:34:27;;;;;;;0.40;0.40;;;8.80;99.90;;;;;;4975078;28;20473;-79
2024/02/06 10:36:58;;;;;;;1.13;0.47;;;8.80;99.90;;;;;;4977327;28;20504;-79
2024/02/06 10:39:28;;;;;;;0.30;0.30;;;8.90;99.90;;;;;;4979123;28;20528;-79
2024/02/06 10:41:59;;;;;;;0.83;0.50;;;8.80;99.90;;;;;;4984664;28;20429;-78
2024/02/06 10:44:28;;;;;;;0.60;0.40;;;8.90;99.90;;;;;;4979579;28;20891;-79
2024/02/06 10:46:59;;;;;;;3.20;0.43;;;9.10;99.90;;;;;;4979301;28;20453;-79
2024/02/06 10:49:26;;;;;;;0.40;0.40;;;9.10;99.90;;;;;;4979210;28;20857;-79
2024/02/06 10:52:01;;;;;;;0.50;0.40;;;9.10;99.90;;;;;;4979122;28;21040;-79
2024/02/06 10:54:29;;;;;;;0.83;0.50;;;9.10;99.90;;;;;;4978607;28;20413;-79
2024/02/06 10:57:03;;;;;;;0.57;0.50;;;9.20;99.90;;;;;;4979340;28;20453;-79
2024/02/06 10:59:34;;;;;;;2.20;0.43;;;9.20;99.90;;;;;;4980254;28;20864;-79
2024/02/06 11:02:10;;;;;;;3.03;0.63;;;9.10;99.90;;;;;;4979656;28;20428;-79
2024/02/06 11:04:40;;;;;;;0.80;0.80;;;9.00;99.90;;;;;;4979154;28;20428;-79
2024/02/06 11:07:09;;;;;;;0.97;0.53;;;8.90;99.90;;;;;;4979162;28;20476;-79
2024/02/06 11:09:40;;;;;;;0.97;0.60;;;9.00;99.90;;;;;;4979031;28;20472;-79
2024/02/06 11:12:10;;;;;;;1.00;0.60;;;8.90;99.90;;;;;;4978877;28;20480;-79
2024/02/06 11:14:40;;;;;;;1.80;0.57;;;9.00;99.90;;;;;;4979166;28;20452;-80
2024/02/06 11:17:09;;;;;;;0.40;0.40;;;9.10;99.90;;;;;;4978945;28;20795;-79
2024/02/06 11:19:45;;;;;;;1.10;0.83;;;9.20;99.90;;;;;;4978942;28;20481;-79
2024/02/06 11:22:19;;;;;;;0.40;0.40;;;9.20;99.90;;;;;;4978733;28;20516;-79
2024/02/06 11:24:48;;;;;;;1.63;0.50;;;9.10;99.90;;;;;;4978428;28;20469;-79
2024/02/06 11:27:16;;;;;;;0.40;0.40;;;9.00;99.90;;;;;;4978576;28;20448;-79
2024/02/06 11:29:43;;;;;;;0.83;0.50;;;8.90;99.90;;;;;;4978474;28;20481;-79
2024/02/06 11:32:10;;;;;;;0.70;0.53;;;8.80;99.90;;;;;;4977974;28;21025;-79
2024/02/06 11:34:47;;;;;;;1.87;0.47;;;8.80;99.90;;;;;;4977884;28;20438;-79
2024/02/06 11:37:23;;;;;;;0.73;0.73;;;8.80;99.90;;;;;;4978636;28;20433;-79
2024/02/06 11:39:51;;;;;;;1.53;0.60;;;8.80;99.90;;;;;;4977749;28;20484;-79
2024/02/06 11:42:24;;;;;;;0.30;0.30;;;8.70;99.90;;;;;;4978574;28;20817;-79
2024/02/06 11:44:51;;;;;;;0.37;0.30;;;8.70;99.90;;;;;;4978456;28;20437;-79
2024/02/06 11:47:21;;;;;;;0.40;0.40;;;8.80;99.90;;;;;;4978307;28;20483;-80
2024/02/06 11:49:49;;;;;;;1.20;0.40;;;8.80;99.90;;;;;;4978301;28;20476;-80
2024/02/06 11:52:21;;;;;;;0.60;0.40;;;8.80;99.90;;;;;;4978952;28;20473;-80
2024/02/06 11:54:50;;;;;;;0.60;0.50;;;8.80;99.90;;;;;;4978143;28;20464;-80
2024/02/06 11:57:18;;;;;;;0.50;0.40;;;8.80;99.90;;;;;;4978348;28;20825;-80
2024/02/06 11:59:45;;;;;;;2.60;0.50;;;8.90;99.90;;;;;;4978396;28;20465;-80
2024/02/06 12:02:12;;;;;;;0.80;0.40;;;8.90;99.90;;;;;;4978449;28;20449;-80
2024/02/06 12:04:39;;;;;;;0.30;0.30;;;8.90;99.90;;;;;;4978547;28;20453;-79
2024/02/06 12:07:06;;;;;;;0.97;0.50;;;8.90;99.90;;;;;;4977787;28;20457;-81
2024/02/06 12:09:38;;;;;;;1.30;0.60;;;8.90;99.90;;;;;;4977918;28;20465;-81
2024/02/06 12:12:06;;;;;;;0.40;0.40;;;9.00;99.90;;;;;;4978105;28;20500;-86
2024/02/06 12:14:34;;;;;;;0.40;0.40;;;9.00;99.90;;;;;;4977362;28;20457;-80
2024/02/06 12:17:01;;;;;;;0.50;0.40;;;9.00;99.90;;;;;;4977276;28;20450;-81
2024/02/06 12:19:28;;;;;;;3.07;0.80;;;8.90;99.90;;;;;;4977227;28;20469;-81
2024/02/06 12:22:07;;;;;;;0.63;0.37;;;9.00;99.90;;;;;;4977439;28;20461;-81
2024/02/06 12:24:35;;;;;;;2.53;0.40;;;9.10;99.90;;;;;;4981300;28;20444;-80
2024/02/06 12:27:06;;;;;;;0.57;0.57;;;9.20;99.90;;;;;;4980340;28;20469;-81
2024/02/06 12:29:38;;;;;;;0.70;0.30;;;9.20;99.90;;;;;;4979143;28;20473;-81
2024/02/06 12:32:06;;;;;;;1.80;0.43;;;9.40;99.90;;;;;;4977708;28;20803;-81
2024/02/06 12:34:33;;;;;;;0.50;0.50;;;9.50;99.90;;;;;;4977557;28;20449;-80
2024/02/06 12:37:00;;;;;;;0.80;0.50;;;9.50;99.90;;;;;;4977404;28;20825;-80
2024/02/06 12:39:30;;;;;;;0.60;0.60;;;9.60;99.90;;;;;;4976684;28;20488;-81
2024/02/06 12:42:05;;;;;;;0.67;0.40;;;9.70;99.90;;;;;;4978857;28;20456;-81
2024/02/06 12:44:32;;;;;;;0.70;0.70;;;9.80;99.90;;;;;;4976741;28;20488;-81
2024/02/06 12:47:01;;;;;;;8.13;0.40;;;9.70;99.90;;;;;;4976573;28;20445;-81
2024/02/06 12:49:28;;;;;;;0.40;0.40;;;9.80;99.90;;;;;;4976693;28;20461;-81
2024/02/06 12:51:57;;;;;;;0.40;0.40;;;9.90;99.90;;;;;;4976962;28;20521;-78
2024/02/06 12:54:24;;;;;;;0.40;0.40;;;9.90;99.90;;;;;;4976976;28;20894;-78
2024/02/06 12:56:55;;;;;;;0.40;0.30;;;10.00;99.90;;;;;;4978468;28;20509;-78
2024/02/06 12:59:22;;;;;;;2.07;0.60;;;10.10;99.90;;;;;;4977330;28;20524;-78